Scottish Airport Reports

Civil airfields updated at H+20 and H+50
RAF airfields updated at H+50 only

EGPD - Aberdeen
Distance from station: NNE 19mi, 31km
Updated: 27/06/2019 11:50
Clear
Clear
 Wind from NNW
Wind: NNW 5 mph , 7 km/h
Temperature: 18°C
Dew Point: 13°C
Humidity: 73%
Barometer: 1033 hPa
Clouds: Clear
Visibility: 6 miles , 10 km
2019/06/27 10:50 EGPD 271050Z AUTO 33004KT 220V020 9999 NCD 18/13 Q1033 NOSIG
EGPN - Dundee
Distance from station: SW 41mi, 66km
Updated: 27/06/2019 11:50
Few Clouds
Few Clouds
 Wind from E
Wind: E 9 mph , 15 km/h
Temperature: 17°C
Dew Point: 13°C
Humidity: 77%
Barometer: 1033 hPa
Clouds: Few Clouds
Visibility: 6 miles , 10 km
Cloud details: Few Clouds 1500 ft
2019/06/27 10:50 EGPN 271050Z 09008KT 9999 FEW015 17/13 Q1033
 
EGQS - RAF Lossiemouth
Distance from station: NNW 63mi, 102km
Updated: 27/06/2019 11:50
Few Clouds
Few Clouds
 Wind from NE
Wind: NE 7 mph , 11 km/h
Temperature: 15°C
Dew Point: 11°C
Humidity: 77%
Barometer: 1033 hPa
Clouds: Few Clouds
Visibility: 6 miles , 10 km
Cloud details: Few Clouds 3500 ft
2019/06/27 10:50 EGQS 271050Z 04006KT 9999 FEW035 15/11 Q1033 NOSIG RMK BLU BLU
EGPE - Inverness
Distance from station: WNW 73mi, 117km
Updated: 27/06/2019 11:50
Few Clouds
Few Clouds
 Wind from varies
Wind: varies 3 mph , 6 km/h
Temperature: 18°C
Dew Point: 13°C
Humidity: 73%
Barometer: 1032 hPa
Clouds: Few Clouds
Visibility: 6 miles , 10 km
Cloud details: Few Clouds 4500 ft
2019/06/27 10:50 EGPE 271050Z VRB03KT 9999 FEW045 18/13 Q1032
 
EGPH - Edinburgh
Distance from station: SSW 77mi, 125km
Updated: 27/06/2019 11:50
Clear
Clear
 Wind from NE
Wind: NE 13 mph , 20 km/h
Temperature: 19°C
Dew Point: 13°C
Humidity: 68%
Barometer: 1032 hPa
Summary: Clear
Visibility: greater than 7 miles , 10 km
2019/06/27 10:50 EGPH 271050Z 05011KT CAVOK 19/13 Q1032
EGPC - Wick
Distance from station: NNW 107mi, 172km
Updated: 27/06/2019 11:50
Mostly cloudy
Mostly cloudy
 Wind from NW
Wind: NW 16 mph , 26 km/h
Temperature: 14°C
Dew Point: 11°C
Humidity: 82%
Barometer: 1033 hPa
Clouds: Mostly cloudy
Visibility: 6 miles , 10 km
Cloud details: Mostly cloudy 900 ft
2019/06/27 10:50 EGPC 271050Z 31014KT 9999 BKN009 14/11 Q1033
 
EGPF - Glasgow
Distance from station: SW 107mi, 172km
Updated: 27/06/2019 11:50
Clear
Clear
 Wind from varies
Wind: varies 3 mph , 6 km/h
Temperature: 23°C
Dew Point: 13°C
Humidity: 53%
Barometer: 1032 hPa
Clouds: Clear
Visibility: 6 miles , 10 km
2019/06/27 10:50 EGPF 271050Z AUTO VRB03KT 9999 NCD 23/13 Q1032
EGPK - Prestwick
Distance from station: SW 130mi, 209km
Updated: 27/06/2019 11:50
Clear
Clear
 Wind from WSW
Wind: WSW 9 mph , 15 km/h
Temperature: 21°C
Dew Point: 15°C
Humidity: 69%
Barometer: 1032 hPa
Summary: Clear
Visibility: greater than 7 miles , 10 km
2019/06/27 10:50 EGPK 271050Z 25008KT 220V300 CAVOK 21/15 Q1032
 
EGPA - Kirkwall, Orkney
Distance from station: N 140mi, 225km
Updated: 27/06/2019 11:50
Mostly cloudy
Mostly cloudy
 Wind from WNW
Wind: WNW 8 mph , 13 km/h
Temperature: 13°C
Dew Point: 11°C
Humidity: 88%
Barometer: 1033 hPa
Clouds: Mostly cloudy
Visibility: 6 miles , 10 km
Cloud details: Partly cloudy 400 ft
Mostly cloudy 800 ft
2019/06/27 10:50 EGPA 271050Z 29007KT 260V330 9999 SCT004 BKN008 13/11 Q1033
EGPO - Stornoway, Outer Hebrides
Distance from station: WNW 169mi, 273km
Updated: 27/06/2019 11:50
Mostly cloudy
Mostly cloudy
 Wind from NNE
Wind: NNE 5 mph , 7 km/h
Temperature: 15°C
Dew Point: 11°C
Humidity: 77%
Barometer: 1033 hPa
Clouds: Mostly cloudy
Visibility: 6 miles , 10 km
Cloud details: Mostly cloudy 1400 ft
2019/06/27 10:50 EGPO 271050Z 03004KT 330V070 9999 BKN014 15/11 Q1033
 
EGPI - Islay, Inner Hebrides
Distance from station: WSW 172mi, 276km
Updated: 27/06/2019 11:50
Clear
Clear
 Wind from WSW
Wind: WSW 6 mph , 9 km/h
Temperature: 17°C
Dew Point: 12°C
Humidity: 73%
Barometer: 1032 hPa
Summary: Clear
Visibility: greater than 7 miles , 10 km
2019/06/27 10:50 EGPI 271050Z 25005KT 210V360 CAVOK 17/12 Q1032
EGPU - Tiree, Inner Hebrides
Distance from station: W 172mi, 276km
Updated: 27/06/2019 11:50
Few Clouds
Few Clouds
 Wind from N
Wind: N 10 mph , 17 km/h
Temperature: 15°C
Dew Point: 12°C
Humidity: 82%
Barometer: 1033 hPa
Clouds: Few Clouds
Visibility: 6 miles , 10 km
Cloud details: Few Clouds 600 ft
2019/06/27 10:50 EGPU 271050Z 01009KT 270V330 9999 FEW006 15/12 Q1033
 
EGPB - Sumburgh, Shetland
Distance from station: NNE 208mi, 332km
Updated: 27/06/2019 11:50
Mostly cloudy
Mostly cloudy
 Wind from NW
Wind: NW 9 mph , 15 km/h
Temperature: 12°C
Dew Point: 9°C
Humidity: 82%
Barometer: 1031 hPa
Clouds: Mostly cloudy
Visibility: 6 miles , 10 km
Cloud details: Few Clouds 900 ft
Mostly cloudy 1200 ft
2019/06/27 10:50 EGPB 271050Z 31008KT 270V340 9999 FEW009 BKN012 12/09 Q1031
EGPM - Scatsa, Shetland
Distance from station: NNE 245mi, 392km
Updated: 27/06/2019 11:50
Partly cloudy
Partly cloudy
 Wind from W
Wind: W 13 mph , 20 km/h
Temperature: 12°C
Dew Point: 9°C
Humidity: 82%
Barometer: 1031 hPa
Clouds: Partly cloudy
Visibility: 6 miles , 10 km
Cloud details: Partly cloudy 1300 ft
2019/06/27 10:50 EGPM 271050Z 26011KT 9999 SCT013 12/09 Q1031 TEMPO BKN013
-->